sensor_id;sensor_type;location;lat;lon;timestamp;P1;durP1;ratioP1;P2;durP2;ratioP2
20348;SDS011;10332;50.208;18.988;2022-10-22T00:00:36;15.63;;;9.20;;
20348;SDS011;10332;50.208;18.988;2022-10-22T00:03:24;13.43;;;9.02;;
20348;SDS011;10332;50.208;18.988;2022-10-22T00:05:51;16.27;;;9.50;;
20348;SDS011;10332;50.208;18.988;2022-10-22T00:08:18;13.25;;;9.10;;
20348;SDS011;10332;50.208;18.988;2022-10-22T00:10:46;14.73;;;9.02;;
20348;SDS011;10332;50.208;18.988;2022-10-22T00:13:13;13.77;;;9.25;;
20348;SDS011;10332;50.208;18.988;2022-10-22T00:15:42;14.98;;;9.02;;
20348;SDS011;10332;50.208;18.988;2022-10-22T00:18:09;17.05;;;9.80;;
20348;SDS011;10332;50.208;18.988;2022-10-22T00:20:37;13.38;;;8.82;;
20348;SDS011;10332;50.208;18.988;2022-10-22T00:23:04;12.95;;;8.90;;
20348;SDS011;10332;50.208;18.988;2022-10-22T00:25:33;14.20;;;9.55;;
20348;SDS011;10332;50.208;18.988;2022-10-22T00:28:02;15.57;;;9.77;;
20348;SDS011;10332;50.208;18.988;2022-10-22T00:30:30;13.35;;;8.68;;
20348;SDS011;10332;50.208;18.988;2022-10-22T00:32:57;15.45;;;9.93;;
20348;SDS011;10332;50.208;18.988;2022-10-22T00:35:24;13.70;;;9.48;;
20348;SDS011;10332;50.208;18.988;2022-10-22T00:37:52;15.68;;;9.70;;
20348;SDS011;10332;50.208;18.988;2022-10-22T00:40:19;15.40;;;9.57;;
20348;SDS011;10332;50.208;18.988;2022-10-22T00:42:47;16.15;;;10.27;;
20348;SDS011;10332;50.208;18.988;2022-10-22T00:45:16;14.35;;;9.73;;
20348;SDS011;10332;50.208;18.988;2022-10-22T00:50:35;14.00;;;9.43;;
20348;SDS011;10332;50.208;18.988;2022-10-22T00:53:37;16.30;;;9.68;;
20348;SDS011;10332;50.208;18.988;2022-10-22T00:56:11;17.13;;;10.68;;
20348;SDS011;10332;50.208;18.988;2022-10-22T00:58:43;16.60;;;10.02;;
20348;SDS011;10332;50.208;18.988;2022-10-22T01:01:17;15.18;;;11.32;;
20348;SDS011;10332;50.208;18.988;2022-10-22T01:03:50;15.05;;;10.32;;
20348;SDS011;10332;50.208;18.988;2022-10-22T01:06:21;16.33;;;10.30;;
20348;SDS011;10332;50.208;18.988;2022-10-22T01:17:35;14.23;;;9.80;;
20348;SDS011;10332;50.208;18.988;2022-10-22T01:26:16;15.32;;;9.52;;
20348;SDS011;10332;50.208;18.988;2022-10-22T01:29:08;17.67;;;10.65;;
20348;SDS011;10332;50.208;18.988;2022-10-22T01:32:12;16.35;;;9.57;;
20348;SDS011;10332;50.208;18.988;2022-10-22T01:35:11;15.77;;;9.43;;
20348;SDS011;10332;50.208;18.988;2022-10-22T01:37:49;13.77;;;8.85;;
20348;SDS011;10332;50.208;18.988;2022-10-22T01:40:23;11.93;;;8.57;;
20348;SDS011;10332;50.208;18.988;2022-10-22T01:42:57;14.57;;;8.95;;
20348;SDS011;10332;50.208;18.988;2022-10-22T01:45:29;13.00;;;8.82;;
20348;SDS011;10332;50.208;18.988;2022-10-22T01:48:09;18.23;;;9.40;;
20348;SDS011;10332;50.208;18.988;2022-10-22T01:56:53;14.07;;;9.10;;
20348;SDS011;10332;50.208;18.988;2022-10-22T02:02:38;14.95;;;9.93;;
20348;SDS011;10332;50.208;18.988;2022-10-22T02:05:27;15.65;;;10.40;;
20348;SDS011;10332;50.208;18.988;2022-10-22T02:08:26;14.98;;;9.70;;
20348;SDS011;10332;50.208;18.988;2022-10-22T02:10:59;15.32;;;9.88;;
20348;SDS011;10332;50.208;18.988;2022-10-22T02:13:28;14.57;;;9.55;;
20348;SDS011;10332;50.208;18.988;2022-10-22T02:16:05;14.20;;;10.18;;
20348;SDS011;10332;50.208;18.988;2022-10-22T02:18:37;14.80;;;9.70;;
20348;SDS011;10332;50.208;18.988;2022-10-22T02:21:09;14.30;;;9.35;;
20348;SDS011;10332;50.208;18.988;2022-10-22T02:23:37;14.32;;;9.20;;
20348;SDS011;10332;50.208;18.988;2022-10-22T02:26:06;13.45;;;9.68;;
20348;SDS011;10332;50.208;18.988;2022-10-22T02:28:55;13.38;;;9.80;;
20348;SDS011;10332;50.208;18.988;2022-10-22T02:31:33;14.75;;;10.13;;
20348;SDS011;10332;50.208;18.988;2022-10-22T02:34:07;13.93;;;9.52;;
20348;SDS011;10332;50.208;18.988;2022-10-22T02:36:41;14.35;;;9.93;;
20348;SDS011;10332;50.208;18.988;2022-10-22T02:39:16;14.98;;;10.48;;
20348;SDS011;10332;50.208;18.988;2022-10-22T02:41:46;14.20;;;10.00;;
20348;SDS011;10332;50.208;18.988;2022-10-22T02:44:14;13.90;;;8.90;;
20348;SDS011;10332;50.208;18.988;2022-10-22T02:46:47;13.40;;;9.68;;
20348;SDS011;10332;50.208;18.988;2022-10-22T02:49:15;14.80;;;9.75;;
20348;SDS011;10332;50.208;18.988;2022-10-22T02:51:43;16.35;;;9.50;;
20348;SDS011;10332;50.208;18.988;2022-10-22T02:54:10;18.33;;;11.73;;
20348;SDS011;10332;50.208;18.988;2022-10-22T02:56:38;13.70;;;10.30;;
20348;SDS011;10332;50.208;18.988;2022-10-22T02:59:05;17.88;;;10.90;;
20348;SDS011;10332;50.208;18.988;2022-10-22T03:01:32;16.50;;;9.80;;
20348;SDS011;10332;50.208;18.988;2022-10-22T03:04:00;16.95;;;10.05;;
20348;SDS011;10332;50.208;18.988;2022-10-22T03:06:27;19.13;;;10.75;;
20348;SDS011;10332;50.208;18.988;2022-10-22T03:08:55;18.17;;;11.73;;
20348;SDS011;10332;50.208;18.988;2022-10-22T03:11:23;15.13;;;10.35;;
20348;SDS011;10332;50.208;18.988;2022-10-22T03:13:50;18.05;;;11.38;;
20348;SDS011;10332;50.208;18.988;2022-10-22T03:16:17;13.95;;;10.35;;
20348;SDS011;10332;50.208;18.988;2022-10-22T03:18:45;18.25;;;10.23;;
20348;SDS011;10332;50.208;18.988;2022-10-22T03:21:12;15.77;;;10.43;;
20348;SDS011;10332;50.208;18.988;2022-10-22T03:24:33;14.63;;;9.63;;
20348;SDS011;10332;50.208;18.988;2022-10-22T03:27:04;11.68;;;9.30;;
20348;SDS011;10332;50.208;18.988;2022-10-22T03:29:32;13.65;;;9.40;;
20348;SDS011;10332;50.208;18.988;2022-10-22T03:32:04;16.67;;;10.57;;
20348;SDS011;10332;50.208;18.988;2022-10-22T03:34:32;13.18;;;9.70;;
20348;SDS011;10332;50.208;18.988;2022-10-22T03:36:59;14.00;;;9.52;;
20348;SDS011;10332;50.208;18.988;2022-10-22T03:39:28;12.73;;;9.13;;
20348;SDS011;10332;50.208;18.988;2022-10-22T03:41:59;12.80;;;9.35;;
20348;SDS011;10332;50.208;18.988;2022-10-22T03:44:28;13.77;;;9.40;;
20348;SDS011;10332;50.208;18.988;2022-10-22T03:46:56;13.23;;;8.98;;
20348;SDS011;10332;50.208;18.988;2022-10-22T03:49:28;15.98;;;9.48;;
20348;SDS011;10332;50.208;18.988;2022-10-22T03:51:55;16.92;;;10.23;;
20348;SDS011;10332;50.208;18.988;2022-10-22T03:54:23;16.33;;;9.38;;
20348;SDS011;10332;50.208;18.988;2022-10-22T03:56:50;15.55;;;9.43;;
20348;SDS011;10332;50.208;18.988;2022-10-22T03:59:17;18.00;;;9.40;;
20348;SDS011;10332;50.208;18.988;2022-10-22T04:01:44;14.88;;;9.48;;
20348;SDS011;10332;50.208;18.988;2022-10-22T04:04:12;16.42;;;9.73;;
20348;SDS011;10332;50.208;18.988;2022-10-22T04:06:39;16.75;;;9.73;;
20348;SDS011;10332;50.208;18.988;2022-10-22T04:09:07;18.58;;;10.88;;
20348;SDS011;10332;50.208;18.988;2022-10-22T04:11:34;15.60;;;9.63;;
20348;SDS011;10332;50.208;18.988;2022-10-22T04:14:01;15.13;;;9.80;;
20348;SDS011;10332;50.208;18.988;2022-10-22T04:16:29;15.90;;;8.98;;
20348;SDS011;10332;50.208;18.988;2022-10-22T04:18:58;16.00;;;10.07;;
20348;SDS011;10332;50.208;18.988;2022-10-22T04:21:25;14.27;;;9.25;;
20348;SDS011;10332;50.208;18.988;2022-10-22T04:23:52;14.25;;;9.82;;
20348;SDS011;10332;50.208;18.988;2022-10-22T04:26:20;17.35;;;11.70;;
20348;SDS011;10332;50.208;18.988;2022-10-22T04:28:48;17.42;;;10.55;;
20348;SDS011;10332;50.208;18.988;2022-10-22T04:31:19;17.25;;;11.93;;
20348;SDS011;10332;50.208;18.988;2022-10-22T04:33:57;18.88;;;13.40;;
20348;SDS011;10332;50.208;18.988;2022-10-22T04:36:26;21.45;;;13.45;;
20348;SDS011;10332;50.208;18.988;2022-10-22T04:38:57;16.80;;;11.05;;
20348;SDS011;10332;50.208;18.988;2022-10-22T04:41:28;17.50;;;10.43;;
20348;SDS011;10332;50.208;18.988;2022-10-22T04:43:58;14.85;;;9.60;;
20348;SDS011;10332;50.208;18.988;2022-10-22T04:46:27;15.13;;;8.98;;
20348;SDS011;10332;50.208;18.988;2022-10-22T04:48:58;15.82;;;9.98;;
20348;SDS011;10332;50.208;18.988;2022-10-22T04:51:25;17.05;;;10.70;;
20348;SDS011;10332;50.208;18.988;2022-10-22T04:53:53;16.92;;;11.02;;
20348;SDS011;10332;50.208;18.988;2022-10-22T04:56:25;14.50;;;10.20;;
20348;SDS011;10332;50.208;18.988;2022-10-22T05:01:30;16.55;;;10.98;;
20348;SDS011;10332;50.208;18.988;2022-10-22T05:04:00;20.63;;;10.98;;
20348;SDS011;10332;50.208;18.988;2022-10-22T05:06:30;18.85;;;10.57;;
20348;SDS011;10332;50.208;18.988;2022-10-22T05:09:01;16.55;;;11.07;;
20348;SDS011;10332;50.208;18.988;2022-10-22T05:11:33;20.15;;;11.70;;
20348;SDS011;10332;50.208;18.988;2022-10-22T05:14:04;16.45;;;10.27;;
20348;SDS011;10332;50.208;18.988;2022-10-22T05:16:33;17.35;;;11.00;;
20348;SDS011;10332;50.208;18.988;2022-10-22T05:19:04;17.75;;;11.02;;
20348;SDS011;10332;50.208;18.988;2022-10-22T05:21:33;16.08;;;10.95;;
20348;SDS011;10332;50.208;18.988;2022-10-22T05:24:01;16.80;;;11.40;;
20348;SDS011;10332;50.208;18.988;2022-10-22T05:26:29;15.38;;;10.20;;
20348;SDS011;10332;50.208;18.988;2022-10-22T05:28:56;16.70;;;11.07;;
20348;SDS011;10332;50.208;18.988;2022-10-22T05:31:24;19.05;;;11.40;;
20348;SDS011;10332;50.208;18.988;2022-10-22T05:33:51;19.20;;;12.10;;
20348;SDS011;10332;50.208;18.988;2022-10-22T05:36:22;15.43;;;10.77;;
20348;SDS011;10332;50.208;18.988;2022-10-22T05:38:50;18.77;;;12.52;;
20348;SDS011;10332;50.208;18.988;2022-10-22T05:41:19;19.83;;;13.00;;
20348;SDS011;10332;50.208;18.988;2022-10-22T05:43:55;19.63;;;12.57;;
20348;SDS011;10332;50.208;18.988;2022-10-22T05:46:25;18.17;;;12.23;;
20348;SDS011;10332;50.208;18.988;2022-10-22T05:48:56;15.68;;;10.80;;
20348;SDS011;10332;50.208;18.988;2022-10-22T05:51:32;18.63;;;11.45;;
20348;SDS011;10332;50.208;18.988;2022-10-22T05:54:04;17.45;;;11.93;;
20348;SDS011;10332;50.208;18.988;2022-10-22T05:56:33;21.10;;;12.88;;
20348;SDS011;10332;50.208;18.988;2022-10-22T05:59:02;17.83;;;11.27;;
20348;SDS011;10332;50.208;18.988;2022-10-22T06:01:31;16.38;;;10.57;;
20348;SDS011;10332;50.208;18.988;2022-10-22T06:04:03;15.88;;;10.00;;
20348;SDS011;10332;50.208;18.988;2022-10-22T06:06:39;15.60;;;10.85;;
20348;SDS011;10332;50.208;18.988;2022-10-22T06:11:53;23.15;;;11.85;;
20348;SDS011;10332;50.208;18.988;2022-10-22T06:14:21;22.88;;;13.20;;
20348;SDS011;10332;50.208;18.988;2022-10-22T06:16:49;27.80;;;14.30;;
20348;SDS011;10332;50.208;18.988;2022-10-22T06:19:23;28.75;;;15.38;;
20348;SDS011;10332;50.208;18.988;2022-10-22T06:21:52;29.63;;;15.32;;
20348;SDS011;10332;50.208;18.988;2022-10-22T06:24:22;29.30;;;15.27;;
20348;SDS011;10332;50.208;18.988;2022-10-22T06:26:50;30.98;;;15.68;;
20348;SDS011;10332;50.208;18.988;2022-10-22T06:29:18;28.10;;;16.45;;
20348;SDS011;10332;50.208;18.988;2022-10-22T06:31:45;21.40;;;13.65;;
20348;SDS011;10332;50.208;18.988;2022-10-22T06:34:14;24.05;;;13.88;;
20348;SDS011;10332;50.208;18.988;2022-10-22T06:36:44;20.73;;;12.27;;
20348;SDS011;10332;50.208;18.988;2022-10-22T06:39:14;21.63;;;12.63;;
20348;SDS011;10332;50.208;18.988;2022-10-22T06:41:43;22.73;;;12.30;;
20348;SDS011;10332;50.208;18.988;2022-10-22T06:44:15;20.45;;;12.82;;
20348;SDS011;10332;50.208;18.988;2022-10-22T06:46:44;20.00;;;12.02;;
20348;SDS011;10332;50.208;18.988;2022-10-22T06:49:15;20.05;;;12.02;;
20348;SDS011;10332;50.208;18.988;2022-10-22T06:51:43;21.15;;;12.20;;
20348;SDS011;10332;50.208;18.988;2022-10-22T06:54:11;20.90;;;12.32;;
20348;SDS011;10332;50.208;18.988;2022-10-22T06:56:38;21.15;;;12.23;;
20348;SDS011;10332;50.208;18.988;2022-10-22T06:59:05;19.73;;;12.85;;
20348;SDS011;10332;50.208;18.988;2022-10-22T07:01:33;18.45;;;11.70;;
20348;SDS011;10332;50.208;18.988;2022-10-22T07:04:02;21.08;;;12.68;;
20348;SDS011;10332;50.208;18.988;2022-10-22T07:06:31;22.75;;;14.05;;
20348;SDS011;10332;50.208;18.988;2022-10-22T07:08:59;18.30;;;11.65;;
20348;SDS011;10332;50.208;18.988;2022-10-22T07:11:27;16.90;;;10.88;;
20348;SDS011;10332;50.208;18.988;2022-10-22T07:13:58;18.80;;;10.77;;
20348;SDS011;10332;50.208;18.988;2022-10-22T07:16:26;16.45;;;10.32;;
20348;SDS011;10332;50.208;18.988;2022-10-22T07:18:58;17.13;;;10.65;;
20348;SDS011;10332;50.208;18.988;2022-10-22T07:21:27;17.30;;;10.50;;
20348;SDS011;10332;50.208;18.988;2022-10-22T07:23:56;20.90;;;11.93;;
20348;SDS011;10332;50.208;18.988;2022-10-22T07:26:25;20.88;;;11.45;;
20348;SDS011;10332;50.208;18.988;2022-10-22T07:28:57;18.20;;;11.77;;
20348;SDS011;10332;50.208;18.988;2022-10-22T07:31:26;22.38;;;12.38;;
20348;SDS011;10332;50.208;18.988;2022-10-22T07:33:54;19.23;;;11.68;;
20348;SDS011;10332;50.208;18.988;2022-10-22T07:36:22;19.40;;;12.80;;
20348;SDS011;10332;50.208;18.988;2022-10-22T07:38:52;22.05;;;12.52;;
20348;SDS011;10332;50.208;18.988;2022-10-22T07:41:23;18.60;;;11.82;;
20348;SDS011;10332;50.208;18.988;2022-10-22T07:43:52;17.52;;;11.82;;
20348;SDS011;10332;50.208;18.988;2022-10-22T07:46:20;15.65;;;10.82;;
20348;SDS011;10332;50.208;18.988;2022-10-22T07:48:48;19.30;;;12.05;;
20348;SDS011;10332;50.208;18.988;2022-10-22T07:51:15;14.95;;;10.38;;
20348;SDS011;10332;50.208;18.988;2022-10-22T07:53:44;17.02;;;11.18;;
20348;SDS011;10332;50.208;18.988;2022-10-22T07:56:11;17.02;;;11.95;;
20348;SDS011;10332;50.208;18.988;2022-10-22T07:58:39;15.48;;;10.85;;
20348;SDS011;10332;50.208;18.988;2022-10-22T08:01:07;16.33;;;10.20;;
20348;SDS011;10332;50.208;18.988;2022-10-22T08:03:34;13.10;;;9.63;;
20348;SDS011;10332;50.208;18.988;2022-10-22T08:06:02;16.42;;;11.40;;
20348;SDS011;10332;50.208;18.988;2022-10-22T08:08:30;16.55;;;10.30;;
20348;SDS011;10332;50.208;18.988;2022-10-22T08:10:58;16.83;;;11.00;;
20348;SDS011;10332;50.208;18.988;2022-10-22T08:13:27;16.42;;;10.73;;
20348;SDS011;10332;50.208;18.988;2022-10-22T08:15:58;18.67;;;10.75;;
20348;SDS011;10332;50.208;18.988;2022-10-22T08:18:27;14.85;;;10.32;;
20348;SDS011;10332;50.208;18.988;2022-10-22T08:20:55;16.27;;;10.40;;
20348;SDS011;10332;50.208;18.988;2022-10-22T08:23:23;13.25;;;9.60;;
20348;SDS011;10332;50.208;18.988;2022-10-22T08:25:54;16.30;;;10.35;;
20348;SDS011;10332;50.208;18.988;2022-10-22T08:28:23;20.73;;;12.07;;
20348;SDS011;10332;50.208;18.988;2022-10-22T08:30:51;15.57;;;10.75;;
20348;SDS011;10332;50.208;18.988;2022-10-22T08:33:19;16.77;;;11.75;;
20348;SDS011;10332;50.208;18.988;2022-10-22T08:35:47;17.85;;;11.55;;
20348;SDS011;10332;50.208;18.988;2022-10-22T08:38:16;20.42;;;12.27;;
20348;SDS011;10332;50.208;18.988;2022-10-22T08:40:55;16.70;;;11.50;;
20348;SDS011;10332;50.208;18.988;2022-10-22T08:49:48;54.88;;;33.83;;
20348;SDS011;10332;50.208;18.988;2022-10-22T08:52:16;30.00;;;20.35;;
20348;SDS011;10332;50.208;18.988;2022-10-22T08:54:52;35.25;;;23.17;;
20348;SDS011;10332;50.208;18.988;2022-10-22T09:00:28;15.80;;;10.68;;
20348;SDS011;10332;50.208;18.988;2022-10-22T09:08:41;19.85;;;13.07;;
20348;SDS011;10332;50.208;18.988;2022-10-22T09:13:39;19.73;;;11.55;;
20348;SDS011;10332;50.208;18.988;2022-10-22T09:16:24;19.60;;;11.60;;
20348;SDS011;10332;50.208;18.988;2022-10-22T09:19:20;19.67;;;13.23;;
20348;SDS011;10332;50.208;18.988;2022-10-22T09:22:09;24.98;;;16.25;;
20348;SDS011;10332;50.208;18.988;2022-10-22T09:27:42;23.10;;;15.82;;
20348;SDS011;10332;50.208;18.988;2022-10-22T09:30:12;26.67;;;16.85;;
20348;SDS011;10332;50.208;18.988;2022-10-22T09:32:45;23.20;;;15.57;;
20348;SDS011;10332;50.208;18.988;2022-10-22T09:35:13;22.00;;;15.23;;
20348;SDS011;10332;50.208;18.988;2022-10-22T09:37:49;22.23;;;14.30;;
20348;SDS011;10332;50.208;18.988;2022-10-22T09:40:21;22.52;;;15.73;;
20348;SDS011;10332;50.208;18.988;2022-10-22T09:42:49;24.48;;;16.50;;
20348;SDS011;10332;50.208;18.988;2022-10-22T09:45:18;23.00;;;15.35;;
20348;SDS011;10332;50.208;18.988;2022-10-22T09:47:50;22.30;;;14.07;;
20348;SDS011;10332;50.208;18.988;2022-10-22T09:51:04;25.00;;;16.30;;
20348;SDS011;10332;50.208;18.988;2022-10-22T09:53:46;22.85;;;14.18;;
20348;SDS011;10332;50.208;18.988;2022-10-22T09:59:01;19.15;;;13.52;;
20348;SDS011;10332;50.208;18.988;2022-10-22T10:01:33;21.67;;;14.90;;
20348;SDS011;10332;50.208;18.988;2022-10-22T10:04:05;22.73;;;15.45;;
20348;SDS011;10332;50.208;18.988;2022-10-22T10:06:36;17.33;;;13.23;;
20348;SDS011;10332;50.208;18.988;2022-10-22T10:09:14;23.15;;;15.88;;
20348;SDS011;10332;50.208;18.988;2022-10-22T10:15:10;21.35;;;14.65;;
20348;SDS011;10332;50.208;18.988;2022-10-22T10:21:23;22.17;;;14.20;;
20348;SDS011;10332;50.208;18.988;2022-10-22T10:30:23;20.52;;;13.63;;
20348;SDS011;10332;50.208;18.988;2022-10-22T10:38:41;24.75;;;15.15;;
20348;SDS011;10332;50.208;18.988;2022-10-22T10:41:58;22.05;;;13.75;;
20348;SDS011;10332;50.208;18.988;2022-10-22T10:48:06;15.80;;;11.10;;
20348;SDS011;10332;50.208;18.988;2022-10-22T10:56:46;22.67;;;13.30;;
20348;SDS011;10332;50.208;18.988;2022-10-22T11:00:08;23.60;;;14.73;;
20348;SDS011;10332;50.208;18.988;2022-10-22T11:05:27;20.73;;;13.48;;
20348;SDS011;10332;50.208;18.988;2022-10-22T11:08:01;21.80;;;14.60;;
20348;SDS011;10332;50.208;18.988;2022-10-22T11:10:59;17.90;;;13.35;;
20348;SDS011;10332;50.208;18.988;2022-10-22T11:16:22;17.67;;;12.63;;
20348;SDS011;10332;50.208;18.988;2022-10-22T11:22:37;18.20;;;12.48;;
20348;SDS011;10332;50.208;18.988;2022-10-22T11:25:45;21.17;;;12.82;;
20348;SDS011;10332;50.208;18.988;2022-10-22T11:30:42;23.60;;;13.93;;
20348;SDS011;10332;50.208;18.988;2022-10-22T11:33:18;25.00;;;15.05;;
20348;SDS011;10332;50.208;18.988;2022-10-22T11:35:52;23.83;;;15.73;;
20348;SDS011;10332;50.208;18.988;2022-10-22T11:38:30;23.13;;;15.55;;
20348;SDS011;10332;50.208;18.988;2022-10-22T11:41:03;29.85;;;19.65;;
20348;SDS011;10332;50.208;18.988;2022-10-22T11:49:22;26.25;;;16.35;;
20348;SDS011;10332;50.208;18.988;2022-10-22T11:55:02;27.08;;;16.77;;
20348;SDS011;10332;50.208;18.988;2022-10-22T12:00:55;26.63;;;17.15;;
20348;SDS011;10332;50.208;18.988;2022-10-22T12:08:31;26.50;;;16.75;;
20348;SDS011;10332;50.208;18.988;2022-10-22T12:11:04;25.63;;;16.50;;
20348;SDS011;10332;50.208;18.988;2022-10-22T12:17:13;26.25;;;15.98;;
20348;SDS011;10332;50.208;18.988;2022-10-22T12:19:28;27.15;;;16.13;;
20348;SDS011;10332;50.208;18.988;2022-10-22T12:24:37;23.73;;;15.10;;
20348;SDS011;10332;50.208;18.988;2022-10-22T12:27:21;29.40;;;17.20;;
20348;SDS011;10332;50.208;18.988;2022-10-22T12:32:53;26.85;;;17.48;;
20348;SDS011;10332;50.208;18.988;2022-10-22T12:35:30;28.05;;;17.02;;
20348;SDS011;10332;50.208;18.988;2022-10-22T12:38:23;26.45;;;17.15;;
20348;SDS011;10332;50.208;18.988;2022-10-22T12:40:53;24.52;;;16.83;;
20348;SDS011;10332;50.208;18.988;2022-10-22T12:43:24;25.85;;;16.58;;
20348;SDS011;10332;50.208;18.988;2022-10-22T12:45:55;27.25;;;17.05;;
20348;SDS011;10332;50.208;18.988;2022-10-22T12:48:29;24.42;;;16.77;;
20348;SDS011;10332;50.208;18.988;2022-10-22T12:51:02;27.13;;;17.42;;
20348;SDS011;10332;50.208;18.988;2022-10-22T12:53:37;26.60;;;16.92;;
20348;SDS011;10332;50.208;18.988;2022-10-22T12:56:12;25.38;;;15.68;;
20348;SDS011;10332;50.208;18.988;2022-10-22T12:58:51;25.48;;;16.70;;
20348;SDS011;10332;50.208;18.988;2022-10-22T13:01:39;23.92;;;15.52;;
20348;SDS011;10332;50.208;18.988;2022-10-22T13:07:04;22.15;;;14.52;;
20348;SDS011;10332;50.208;18.988;2022-10-22T13:09:42;24.27;;;16.10;;
20348;SDS011;10332;50.208;18.988;2022-10-22T13:12:27;24.17;;;15.35;;
20348;SDS011;10332;50.208;18.988;2022-10-22T13:17:48;20.85;;;14.60;;
20348;SDS011;10332;50.208;18.988;2022-10-22T13:20:18;24.67;;;15.27;;
20348;SDS011;10332;50.208;18.988;2022-10-22T13:22:58;22.38;;;15.75;;
20348;SDS011;10332;50.208;18.988;2022-10-22T13:25:36;25.70;;;15.88;;
20348;SDS011;10332;50.208;18.988;2022-10-22T13:30:52;22.75;;;15.07;;
20348;SDS011;10332;50.208;18.988;2022-10-22T13:33:32;24.20;;;16.02;;
20348;SDS011;10332;50.208;18.988;2022-10-22T13:36:02;24.80;;;16.30;;
20348;SDS011;10332;50.208;18.988;2022-10-22T13:38:31;26.45;;;16.60;;
20348;SDS011;10332;50.208;18.988;2022-10-22T13:40:58;23.35;;;16.00;;
20348;SDS011;10332;50.208;18.988;2022-10-22T13:43:28;28.63;;;18.38;;
20348;SDS011;10332;50.208;18.988;2022-10-22T13:45:57;27.77;;;18.15;;
20348;SDS011;10332;50.208;18.988;2022-10-22T13:48:27;26.85;;;17.98;;
20348;SDS011;10332;50.208;18.988;2022-10-22T13:50:56;30.40;;;19.85;;
20348;SDS011;10332;50.208;18.988;2022-10-22T13:53:24;31.90;;;19.80;;
20348;SDS011;10332;50.208;18.988;2022-10-22T13:55:54;30.35;;;20.25;;
20348;SDS011;10332;50.208;18.988;2022-10-22T13:58:22;29.45;;;18.83;;
20348;SDS011;10332;50.208;18.988;2022-10-22T14:00:51;30.35;;;20.25;;
20348;SDS011;10332;50.208;18.988;2022-10-22T14:03:27;31.98;;;20.88;;
20348;SDS011;10332;50.208;18.988;2022-10-22T14:05:59;26.70;;;18.73;;
20348;SDS011;10332;50.208;18.988;2022-10-22T14:08:27;30.08;;;20.90;;
20348;SDS011;10332;50.208;18.988;2022-10-22T14:10:54;34.55;;;22.55;;
20348;SDS011;10332;50.208;18.988;2022-10-22T14:13:22;28.42;;;19.08;;
20348;SDS011;10332;50.208;18.988;2022-10-22T14:15:49;29.65;;;19.90;;
20348;SDS011;10332;50.208;18.988;2022-10-22T14:18:27;30.90;;;20.45;;
20348;SDS011;10332;50.208;18.988;2022-10-22T14:20:57;29.08;;;19.52;;
20348;SDS011;10332;50.208;18.988;2022-10-22T14:23:30;31.75;;;19.92;;
20348;SDS011;10332;50.208;18.988;2022-10-22T14:26:00;32.72;;;21.77;;
20348;SDS011;10332;50.208;18.988;2022-10-22T14:28:29;32.70;;;21.80;;
20348;SDS011;10332;50.208;18.988;2022-10-22T14:31:08;31.17;;;21.88;;
20348;SDS011;10332;50.208;18.988;2022-10-22T14:33:36;34.45;;;23.38;;
20348;SDS011;10332;50.208;18.988;2022-10-22T14:36:06;34.45;;;23.33;;
20348;SDS011;10332;50.208;18.988;2022-10-22T14:38:37;37.72;;;24.77;;
20348;SDS011;10332;50.208;18.988;2022-10-22T14:41:04;38.10;;;24.55;;
20348;SDS011;10332;50.208;18.988;2022-10-22T14:43:48;37.20;;;23.85;;
20348;SDS011;10332;50.208;18.988;2022-10-22T14:46:17;35.83;;;23.05;;
20348;SDS011;10332;50.208;18.988;2022-10-22T14:48:45;37.40;;;23.85;;
20348;SDS011;10332;50.208;18.988;2022-10-22T14:51:14;36.63;;;23.67;;
20348;SDS011;10332;50.208;18.988;2022-10-22T14:53:46;36.22;;;24.02;;
20348;SDS011;10332;50.208;18.988;2022-10-22T14:56:15;35.60;;;24.35;;
20348;SDS011;10332;50.208;18.988;2022-10-22T14:58:47;36.92;;;25.25;;
20348;SDS011;10332;50.208;18.988;2022-10-22T15:01:15;36.50;;;24.85;;
20348;SDS011;10332;50.208;18.988;2022-10-22T15:03:43;35.22;;;24.45;;
20348;SDS011;10332;50.208;18.988;2022-10-22T15:06:10;37.30;;;25.25;;
20348;SDS011;10332;50.208;18.988;2022-10-22T15:08:38;40.65;;;27.52;;
20348;SDS011;10332;50.208;18.988;2022-10-22T15:11:06;47.65;;;29.17;;
20348;SDS011;10332;50.208;18.988;2022-10-22T15:13:37;44.72;;;29.40;;
20348;SDS011;10332;50.208;18.988;2022-10-22T15:16:07;42.05;;;27.33;;
20348;SDS011;10332;50.208;18.988;2022-10-22T15:18:37;38.17;;;25.55;;
20348;SDS011;10332;50.208;18.988;2022-10-22T15:21:05;39.55;;;26.85;;
20348;SDS011;10332;50.208;18.988;2022-10-22T15:23:41;41.60;;;26.52;;
20348;SDS011;10332;50.208;18.988;2022-10-22T15:26:09;39.47;;;26.38;;
20348;SDS011;10332;50.208;18.988;2022-10-22T15:28:38;38.28;;;25.00;;
20348;SDS011;10332;50.208;18.988;2022-10-22T15:31:07;43.22;;;28.92;;
20348;SDS011;10332;50.208;18.988;2022-10-22T15:33:39;45.85;;;28.55;;
20348;SDS011;10332;50.208;18.988;2022-10-22T15:36:12;44.63;;;30.67;;
20348;SDS011;10332;50.208;18.988;2022-10-22T15:38:42;46.03;;;30.33;;
20348;SDS011;10332;50.208;18.988;2022-10-22T15:41:09;41.22;;;26.27;;
20348;SDS011;10332;50.208;18.988;2022-10-22T15:43:39;44.65;;;30.05;;
20348;SDS011;10332;50.208;18.988;2022-10-22T15:46:13;44.55;;;30.08;;
20348;SDS011;10332;50.208;18.988;2022-10-22T15:48:44;47.42;;;32.20;;
20348;SDS011;10332;50.208;18.988;2022-10-22T15:51:16;42.75;;;28.60;;
20348;SDS011;10332;50.208;18.988;2022-10-22T15:53:55;48.60;;;32.85;;
20348;SDS011;10332;50.208;18.988;2022-10-22T15:56:25;46.30;;;30.90;;
20348;SDS011;10332;50.208;18.988;2022-10-22T15:58:56;47.33;;;30.30;;
20348;SDS011;10332;50.208;18.988;2022-10-22T16:01:30;44.25;;;30.73;;
20348;SDS011;10332;50.208;18.988;2022-10-22T16:04:00;41.50;;;28.95;;
20348;SDS011;10332;50.208;18.988;2022-10-22T16:06:30;44.72;;;29.08;;
20348;SDS011;10332;50.208;18.988;2022-10-22T16:09:08;44.30;;;29.77;;
20348;SDS011;10332;50.208;18.988;2022-10-22T16:11:40;38.08;;;27.52;;
20348;SDS011;10332;50.208;18.988;2022-10-22T16:14:12;39.65;;;27.60;;
20348;SDS011;10332;50.208;18.988;2022-10-22T16:16:42;43.20;;;30.95;;
20348;SDS011;10332;50.208;18.988;2022-10-22T16:19:16;51.10;;;35.90;;
20348;SDS011;10332;50.208;18.988;2022-10-22T16:21:47;48.10;;;35.50;;
20348;SDS011;10332;50.208;18.988;2022-10-22T16:24:17;53.85;;;39.00;;
20348;SDS011;10332;50.208;18.988;2022-10-22T16:26:45;60.45;;;41.60;;
20348;SDS011;10332;50.208;18.988;2022-10-22T16:29:14;56.08;;;41.25;;
20348;SDS011;10332;50.208;18.988;2022-10-22T16:31:41;54.45;;;40.15;;
20348;SDS011;10332;50.208;18.988;2022-10-22T16:34:10;56.80;;;39.05;;
20348;SDS011;10332;50.208;18.988;2022-10-22T16:36:38;56.80;;;38.30;;
20348;SDS011;10332;50.208;18.988;2022-10-22T16:39:06;54.60;;;38.85;;
20348;SDS011;10332;50.208;18.988;2022-10-22T16:41:34;48.85;;;33.58;;
20348;SDS011;10332;50.208;18.988;2022-10-22T16:44:03;44.97;;;30.15;;
20348;SDS011;10332;50.208;18.988;2022-10-22T16:46:34;48.35;;;30.63;;
20348;SDS011;10332;50.208;18.988;2022-10-22T16:49:05;49.90;;;32.75;;